Time;durP1;ratioP1;P1;durP2;ratioP2;P2;SDS_P1;SDS_P2;PMS_P1;PMS_P2;Temp;Humidity;BMP_temperature;BMP_pressure;BME280_temperature;BME280_humidity;BME280_pressure;Samples;Min_cycle;Max_cycle;Signal;HPM_P1;HPM_P2
2021/11/16 00:02:07;;;;;;;34.38;11.43;;;;;;;5.66;83.97;101779.91;5023405;28;20030;-71
2021/11/16 00:04:35;;;;;;;16.98;7.47;;;;;;;5.61;84.32;101770.28;5023836;28;20026;-71
2021/11/16 00:07:01;;;;;;;23.23;9.98;;;;;;;5.68;84.06;101779.94;5023483;28;20524;-72
2021/11/16 00:09:27;;;;;;;31.85;13.20;;;;;;;5.75;83.54;101781.91;5023599;28;20030;-71
2021/11/16 00:11:52;;;;;;;33.90;13.38;;;;;;;5.65;83.83;101773.00;5023307;28;20118;-71
2021/11/16 00:14:18;;;;;;;26.42;11.07;;;;;;;5.65;84.11;101775.59;5023425;28;20068;-71
2021/11/16 00:16:43;;;;;;;22.65;10.40;;;;;;;5.69;84.06;101785.16;5022365;28;20098;-71
2021/11/16 00:19:13;;;;;;;31.45;14.10;;;;;;;5.74;83.70;101777.56;5023503;28;20021;-71
2021/11/16 00:21:40;;;;;;;25.60;11.15;;;;;;;5.76;83.32;101783.66;5023686;28;20056;-71
2021/11/16 00:24:12;;;;;;;28.40;12.07;;;;;;;5.67;83.82;101784.22;5024317;28;20022;-72
2021/11/16 00:26:37;;;;;;;26.67;10.48;;;;;;;5.68;83.95;101778.25;5027661;28;20029;-71
2021/11/16 00:29:03;;;;;;;32.05;13.52;;;;;;;5.72;83.97;101778.38;5025732;28;20453;-71
2021/11/16 00:31:31;;;;;;;34.97;14.32;;;;;;;5.69;84.06;101774.84;5026161;28;20022;-72
2021/11/16 00:33:57;;;;;;;32.92;14.02;;;;;;;5.74;84.13;101774.13;5027242;28;20046;-72
2021/11/16 00:36:23;;;;;;;37.40;15.65;;;;;;;5.74;84.02;101766.38;5027267;28;20057;-73
2021/11/16 00:38:48;;;;;;;35.58;14.05;;;;;;;5.79;83.83;101764.84;5027324;28;20049;-71
2021/11/16 00:41:14;;;;;;;34.80;15.15;;;;;;;5.74;83.82;101756.06;5027200;28;20049;-71
2021/11/16 00:43:39;;;;;;;33.05;14.55;;;;;;;5.90;83.21;101758.34;5026988;28;20049;-71
2021/11/16 00:46:04;;;;;;;35.30;14.43;;;;;;;5.81;83.37;101758.91;5025894;28;20029;-71
2021/11/16 00:48:30;;;;;;;22.58;11.00;;;;;;;5.82;83.47;101750.38;5027301;28;20032;-72
2021/11/16 00:51:00;;;;;;;28.35;14.18;;;;;;;5.79;83.50;101739.06;5027224;28;20026;-74
2021/11/16 00:53:29;;;;;;;31.52;13.80;;;;;;;5.78;83.56;101742.50;5026867;28;20037;-71
2021/11/16 00:55:55;;;;;;;30.52;13.18;;;;;;;5.79;83.68;101745.13;5027116;28;20032;-71
2021/11/16 00:58:21;;;;;;;27.50;11.80;;;;;;;5.84;83.16;101747.84;5026701;28;20041;-71
2021/11/16 01:00:47;;;;;;;30.88;13.23;;;;;;;5.85;82.77;101744.44;5027014;28;20022;-71
2021/11/16 01:03:14;;;;;;;28.50;13.65;;;;;;;5.79;82.78;101727.06;5026855;28;20086;-71
2021/11/16 01:05:40;;;;;;;18.10;8.50;;;;;;;5.87;82.37;101740.22;5026600;28;20037;-71
2021/11/16 01:08:07;;;;;;;33.58;13.35;;;;;;;5.77;82.89;101735.56;5026700;28;20077;-71
2021/11/16 01:10:33;;;;;;;31.63;14.27;;;;;;;5.82;82.50;101728.88;5026762;28;20029;-72
2021/11/16 01:12:59;;;;;;;25.02;11.13;;;;;;;5.75;82.82;101726.94;5026340;28;20052;-71
2021/11/16 01:15:24;;;;;;;24.88;11.70;;;;;;;5.69;82.55;101717.28;5026701;28;20050;-71
2021/11/16 01:17:50;;;;;;;32.80;11.75;;;;;;;5.76;82.68;101723.50;5026526;28;20049;-71
2021/11/16 01:20:18;;;;;;;29.35;10.93;;;;;;;5.77;82.72;101728.72;5026621;28;20022;-71
2021/11/16 01:22:47;;;;;;;25.35;10.30;;;;;;;5.77;82.67;101720.97;5026595;28;20022;-71
2021/11/16 01:25:14;;;;;;;26.63;11.77;;;;;;;5.77;82.57;101712.38;5026446;28;20038;-72
2021/11/16 01:27:40;;;;;;;26.08;12.32;;;;;;;5.78;82.36;101714.13;5026466;28;20030;-72
2021/11/16 01:30:13;;;;;;;28.73;12.13;;;;;;;5.76;82.33;101708.06;5026199;28;20099;-72
2021/11/16 01:32:43;;;;;;;23.45;11.45;;;;;;;5.78;82.46;101717.56;5026130;28;20025;-71
2021/11/16 01:35:09;;;;;;;28.20;11.85;;;;;;;5.77;82.45;101707.22;5025945;28;20026;-72
2021/11/16 01:37:36;;;;;;;31.55;13.55;;;;;;;5.72;82.10;101695.91;5026010;28;20032;-71
2021/11/16 01:40:07;;;;;;;29.70;13.63;;;;;;;5.69;82.57;101707.84;5024963;28;20022;-72
2021/11/16 01:42:32;;;;;;;27.27;11.45;;;;;;;5.70;82.72;101703.59;5026005;28;20041;-71
2021/11/16 01:44:58;;;;;;;28.77;12.95;;;;;;;5.72;82.66;101711.38;5026178;28;20144;-71
2021/11/16 01:47:23;;;;;;;27.73;13.15;;;;;;;5.72;82.75;101698.47;5026378;28;20026;-71
2021/11/16 01:49:49;;;;;;;31.48;13.75;;;;;;;5.78;82.36;101696.97;5026079;28;20022;-71
2021/11/16 01:52:15;;;;;;;37.35;15.75;;;;;;;5.70;82.55;101696.72;5025880;28;20061;-72
2021/11/16 01:54:40;;;;;;;33.25;15.32;;;;;;;5.73;82.78;101711.41;5024502;28;20037;-71
2021/11/16 01:57:06;;;;;;;36.47;13.82;;;;;;;5.75;82.58;101701.16;5026003;28;20022;-71
2021/11/16 01:59:32;;;;;;;35.58;15.63;;;;;;;5.77;82.38;101699.47;5025683;28;20026;-72
2021/11/16 02:01:58;;;;;;;33.70;15.40;;;;;;;5.78;82.34;101707.25;5024306;28;20579;-71
2021/11/16 02:04:23;;;;;;;24.40;10.57;;;;;;;5.82;82.30;101703.09;5025992;28;20034;-71
2021/11/16 02:06:49;;;;;;;28.98;12.98;;;;;;;5.76;82.44;101700.31;5025636;28;20121;-71
2021/11/16 02:09:16;;;;;;;30.48;13.95;;;;;;;5.81;82.33;101701.34;5024273;28;20026;-71
2021/11/16 02:11:42;;;;;;;33.90;14.98;;;;;;;5.82;82.51;101697.94;5025587;28;20182;-71
2021/11/16 02:14:12;;;;;;;33.45;13.95;;;;;;;5.81;82.38;101698.78;5024186;28;20122;-71
2021/11/16 02:16:40;;;;;;;31.20;13.00;;;;;;;5.79;82.28;101688.41;5024422;28;20018;-72
2021/11/16 02:19:08;;;;;;;36.25;15.55;;;;;;;5.80;82.34;101686.69;5024467;28;20030;-71
2021/11/16 02:21:34;;;;;;;28.90;12.70;;;;;;;5.78;82.41;101673.75;5025441;28;20033;-71
2021/11/16 02:23:59;;;;;;;33.90;13.52;;;;;;;5.81;82.33;101676.44;5025181;28;20052;-72
2021/11/16 02:26:25;;;;;;;32.88;12.60;;;;;;;5.82;82.30;101673.06;5024044;28;20041;-71
2021/11/16 02:28:51;;;;;;;29.33;12.57;;;;;;;5.80;82.21;101671.22;5024250;28;20074;-72
2021/11/16 02:31:18;;;;;;;31.00;14.43;;;;;;;5.80;82.16;101668.66;5024394;28;20410;-71
2021/11/16 02:33:44;;;;;;;35.97;15.25;;;;;;;5.76;82.35;101666.81;5025209;28;20052;-71
2021/11/16 02:36:10;;;;;;;31.27;13.07;;;;;;;5.79;82.14;101664.34;5025122;28;20022;-71
2021/11/16 02:38:36;;;;;;;35.38;16.55;;;;;;;5.77;82.26;101666.88;5023809;28;20025;-72
2021/11/16 02:41:03;;;;;;;33.30;15.65;;;;;;;5.75;82.70;101670.22;5025369;28;20033;-71
2021/11/16 02:43:31;;;;;;;32.88;14.98;;;;;;;5.78;82.36;101666.03;5025009;28;20029;-72
2021/11/16 02:45:57;;;;;;;27.48;12.27;;;;;;;5.74;82.44;101664.19;5024940;28;20020;-71
2021/11/16 02:48:22;;;;;;;36.83;15.25;;;;;;;5.75;82.53;101670.22;5024519;28;20021;-72
2021/11/16 02:50:52;;;;;;;33.60;14.05;;;;;;;5.73;82.82;101669.31;5024929;28;20033;-71
2021/11/16 02:53:18;;;;;;;38.95;16.30;;;;;;;5.76;82.68;101661.66;5024929;28;20038;-72
2021/11/16 02:55:44;;;;;;;36.90;15.70;;;;;;;5.74;82.70;101663.31;5025086;28;20052;-71
2021/11/16 02:58:11;;;;;;;26.85;10.90;;;;;;;5.75;82.82;101655.63;5024575;28;20469;-72
2021/11/16 03:00:39;;;;;;;29.73;11.95;;;;;;;5.73;82.74;101652.16;5025012;28;20022;-72
2021/11/16 03:03:05;;;;;;;31.30;14.95;;;;;;;5.68;82.89;101654.56;5024660;28;20025;-72
2021/11/16 03:05:35;;;;;;;31.13;13.73;;;;;;;5.67;82.81;101646.81;5024806;28;20018;-72
2021/11/16 03:08:10;;;;;;;37.70;14.05;;;;;;;5.68;83.11;101654.56;5024560;28;20026;-72
2021/11/16 03:10:35;;;;;;;41.17;16.85;;;;;;;5.72;82.85;101652.94;5024580;28;20052;-73
2021/11/16 03:13:00;;;;;;;40.53;16.75;;;;;;;5.62;83.52;101649.22;5024171;28;20021;-73
2021/11/16 03:15:26;;;;;;;35.50;16.13;;;;;;;5.69;83.32;101651.16;5024854;28;20021;-72
2021/11/16 03:17:52;;;;;;;36.35;16.83;;;;;;;5.69;83.22;101647.69;5024326;28;20050;-72
2021/11/16 03:20:18;;;;;;;37.88;17.15;;;;;;;5.73;83.17;101648.69;5024338;28;20033;-73
2021/11/16 03:22:48;;;;;;;43.80;16.48;;;;;;;5.70;83.39;101649.47;5024418;28;20026;-72
2021/11/16 03:25:14;;;;;;;38.65;16.27;;;;;;;5.70;83.48;101644.31;5024449;28;20110;-72
2021/11/16 03:27:41;;;;;;;39.58;19.17;;;;;;;5.68;83.36;101645.97;5023592;28;20029;-72
2021/11/16 03:30:07;;;;;;;36.10;19.02;;;;;;;5.76;83.16;101643.63;5023073;28;20061;-72
2021/11/16 03:32:36;;;;;;;44.15;17.40;;;;;;;5.78;83.10;101644.56;5024162;28;20022;-74
2021/11/16 03:35:04;;;;;;;26.10;11.55;;;;;;;5.84;82.89;101649.91;5024054;28;20534;-73
2021/11/16 03:37:39;;;;;;;31.15;14.95;;;;;;;5.81;82.90;101642.06;5024443;28;20486;-73
2021/11/16 03:40:06;;;;;;;36.10;15.80;;;;;;;5.83;82.71;101638.72;5024101;28;20022;-71
2021/11/16 03:42:34;;;;;;;47.03;18.25;;;;;;;5.77;83.06;101638.53;5024026;28;20438;-72
2021/11/16 03:44:59;;;;;;;28.02;12.68;;;;;;;5.83;82.65;101640.44;5024164;28;20026;-72
2021/11/16 03:47:25;;;;;;;34.88;14.30;;;;;;;5.80;82.81;101648.03;5024072;28;20085;-72
2021/11/16 03:49:51;;;;;;;35.38;15.27;;;;;;;5.78;82.87;101640.25;5023892;28;20033;-72
2021/11/16 03:52:21;;;;;;;44.50;17.85;;;;;;;5.78;83.16;101640.25;5023535;28;20017;-71
2021/11/16 03:54:46;;;;;;;39.97;17.48;;;;;;;5.80;82.97;101646.34;5023905;28;20033;-72
2021/11/16 03:57:12;;;;;;;41.00;17.27;;;;;;;5.87;82.83;101639.69;5022522;28;20049;-72
2021/11/16 03:59:37;;;;;;;39.85;17.52;;;;;;;5.82;82.71;101628.34;5023462;28;20061;-71
2021/11/16 04:02:03;;;;;;;33.35;14.38;;;;;;;5.85;82.35;101614.72;5023605;28;20049;-73
2021/11/16 04:04:28;;;;;;;33.95;15.27;;;;;;;5.86;82.78;101619.91;5022290;28;20034;-72
2021/11/16 04:06:54;;;;;;;35.35;14.68;;;;;;;5.84;82.67;101624.13;5023731;28;20032;-72
2021/11/16 04:09:20;;;;;;;36.47;16.77;;;;;;;5.84;82.34;101618.97;5023845;28;20033;-72
2021/11/16 04:11:45;;;;;;;40.92;18.88;;;;;;;5.91;82.13;101610.59;5023441;28;20105;-73
2021/11/16 04:14:11;;;;;;;32.08;11.70;;;;;;;5.89;82.38;101612.28;5023820;28;20030;-72
2021/11/16 04:16:36;;;;;;;32.53;13.23;;;;;;;5.86;82.59;101612.19;5022346;28;20025;-73
2021/11/16 04:19:03;;;;;;;39.97;15.70;;;;;;;5.83;82.44;101601.78;5023711;28;20113;-74
2021/11/16 04:21:28;;;;;;;37.33;15.68;;;;;;;5.90;82.33;101607.97;5023472;28;20034;-73
2021/11/16 04:23:54;;;;;;;35.45;15.07;;;;;;;5.95;82.37;101602.13;5023657;28;20025;-73
2021/11/16 04:26:20;;;;;;;35.92;13.32;;;;;;;5.85;82.80;101602.66;5023386;28;20177;-72
2021/11/16 04:28:45;;;;;;;44.33;18.65;;;;;;;5.82;82.77;101605.16;5023267;28;20061;-73
2021/11/16 04:31:11;;;;;;;33.67;13.98;;;;;;;5.91;82.67;101599.44;5023532;28;20042;-72
2021/11/16 04:33:38;;;;;;;23.63;10.40;;;;;;;5.85;82.85;101605.25;5023378;28;20068;-72
2021/11/16 04:36:04;;;;;;;47.13;18.85;;;;;;;5.78;83.26;101608.47;5023419;28;20026;-73
2021/11/16 04:38:29;;;;;;;47.60;20.10;;;;;;;5.66;83.70;101602.13;5023326;28;20041;-73
2021/11/16 04:40:57;;;;;;;50.45;20.58;;;;;;;5.70;83.95;101606.53;5023529;28;20022;-74
2021/11/16 04:43:26;;;;;;;53.05;22.75;;;;;;;5.68;83.86;101607.31;5023162;28;20489;-75
2021/11/16 04:45:55;;;;;;;49.63;20.00;;;;;;;5.77;83.75;101607.59;5023627;28;20026;-75
2021/11/16 04:48:32;;;;;;;50.40;20.50;;;;;;;5.77;83.59;101606.72;5023283;28;20125;-75
2021/11/16 04:51:28;;;;;;;55.97;21.42;;;;;;;5.72;83.51;101601.41;5023599;28;20049;-75
2021/11/16 04:54:18;;;;;;;36.30;15.38;;;;;;;5.74;83.62;101606.63;5023330;28;20026;-74
2021/11/16 05:04:42;;;;;;;44.63;20.23;;;;;;;5.43;85.02;101591.94;5023393;28;20089;-75
2021/11/16 05:07:12;;;;;;;56.63;20.60;;;;;;;5.39;85.34;101600.41;5023461;28;20034;-76
2021/11/16 05:09:38;;;;;;;48.83;19.77;;;;;;;5.29;85.68;101585.47;5022466;28;20516;-75
2021/11/16 05:12:03;;;;;;;46.15;19.23;;;;;;;5.32;85.99;101583.88;5025640;28;20018;-74
2021/11/16 05:14:29;;;;;;;57.72;20.27;;;;;;;5.27;86.13;101585.41;5027112;28;20085;-74
2021/11/16 05:16:54;;;;;;;61.35;21.40;;;;;;;5.23;86.67;101583.59;5026834;28;20049;-73
2021/11/16 05:19:20;;;;;;;45.63;17.83;;;;;;;5.19;86.83;101574.88;5026769;28;20030;-78
2021/11/16 05:21:45;;;;;;;51.53;21.25;;;;;;;5.28;86.75;101588.88;5027697;28;20028;-80
2021/11/16 05:24:11;;;;;;;68.22;23.98;;;;;;;5.17;87.14;101573.97;5025806;28;20053;-79
2021/11/16 05:26:36;;;;;;;82.43;28.92;;;;;;;5.26;87.03;101585.38;5026600;28;20026;-79
2021/11/16 05:29:02;;;;;;;31.13;13.13;;;;;;;5.30;86.88;101584.66;5026255;28;20045;-73
2021/11/16 05:31:28;;;;;;;76.28;23.77;;;;;;;5.21;87.28;101569.78;5026691;28;20030;-77
2021/11/16 05:33:54;;;;;;;75.75;28.00;;;;;;;5.23;87.42;101572.41;5026632;28;20022;-73
2021/11/16 05:36:20;;;;;;;71.03;24.10;;;;;;;5.30;87.36;101571.78;5026645;28;20038;-72
2021/11/16 05:38:47;;;;;;;75.57;24.65;;;;;;;5.25;87.27;101565.59;5027241;28;20394;-72
2021/11/16 05:41:14;;;;;;;63.17;22.95;;;;;;;5.27;87.58;101569.13;5026880;28;20018;-72
2021/11/16 05:43:42;;;;;;;74.40;26.13;;;;;;;5.18;87.86;101562.84;5026315;28;20112;-73
2021/11/16 05:46:08;;;;;;;71.32;24.17;;;;;;;5.18;87.99;101570.56;5025023;28;20114;-73
2021/11/16 05:48:40;;;;;;;69.55;24.55;;;;;;;5.24;87.98;101563.88;5026101;28;20033;-71
2021/11/16 05:51:08;;;;;;;84.90;27.42;;;;;;;5.31;87.99;101570.94;5026471;28;20105;-73
2021/11/16 05:53:34;;;;;;;63.05;22.48;;;;;;;5.33;87.52;101564.16;5025955;28;20121;-73
2021/11/16 05:56:00;;;;;;;82.68;27.05;;;;;;;5.29;88.21;101564.88;5026104;28;20025;-72
2021/11/16 05:58:26;;;;;;;57.75;22.08;;;;;;;5.27;88.39;101564.81;5025682;28;20065;-72
2021/11/16 06:00:52;;;;;;;82.20;24.63;;;;;;;5.29;88.46;101560.59;5025947;28;20380;-74
2021/11/16 06:03:17;;;;;;;60.10;18.25;;;;;;;5.32;88.37;101555.56;5025489;28;20026;-74
2021/11/16 06:05:43;;;;;;;43.58;15.18;;;;;;;5.37;88.32;101550.53;5024723;28;20022;-73
2021/11/16 06:08:26;;;;;;;82.25;26.15;;;;;;;5.28;88.91;101539.97;5026080;28;20061;-74
2021/11/16 06:10:53;;;;;;;70.70;21.98;;;;;;;5.30;88.77;101549.47;5026386;28;20022;-74
2021/11/16 06:13:19;;;;;;;66.85;19.55;;;;;;;5.30;88.65;101543.47;5025614;28;20022;-74
2021/11/16 06:15:44;;;;;;;59.30;20.00;;;;;;;5.32;88.74;101545.25;5025950;28;20069;-74
2021/11/16 06:18:10;;;;;;;69.38;22.48;;;;;;;5.30;89.11;101543.47;5024442;28;20223;-74
2021/11/16 06:20:38;;;;;;;66.82;23.35;;;;;;;5.40;88.87;101554.94;5023207;28;20100;-74
2021/11/16 06:23:04;;;;;;;82.43;25.63;;;;;;;5.26;89.11;101539.03;5024749;28;20068;-73
2021/11/16 06:25:29;;;;;;;57.70;20.35;;;;;;;5.40;89.05;101548.06;5025685;28;20030;-73
2021/11/16 06:27:55;;;;;;;74.72;25.08;;;;;;;5.38;89.21;101546.28;5025282;28;20018;-73
2021/11/16 06:30:20;;;;;;;64.93;21.70;;;;;;;5.35;89.50;101541.91;5025002;28;20041;-72
2021/11/16 06:32:46;;;;;;;45.10;17.05;;;;;;;5.42;89.23;101541.28;5025208;28;20036;-73
2021/11/16 06:35:16;;;;;;;61.47;17.77;;;;;;;5.41;89.36;101546.38;5025496;28;20378;-74
2021/11/16 06:37:42;;;;;;;79.07;27.20;;;;;;;5.41;89.26;101538.66;5025092;28;20053;-75
2021/11/16 06:40:09;;;;;;;84.00;27.48;;;;;;;5.40;89.59;101550.63;5023755;28;20111;-75
2021/11/16 06:42:36;;;;;;;54.08;19.98;;;;;;;5.50;89.20;101540.63;5025143;28;20049;-74
2021/11/16 06:45:01;;;;;;;67.82;21.67;;;;;;;5.48;88.96;101537.16;5023783;28;20022;-75
2021/11/16 06:47:27;;;;;;;74.68;26.80;;;;;;;5.45;89.03;101531.06;5024936;28;20115;-74
2021/11/16 06:49:52;;;;;;;84.35;26.35;;;;;;;5.39;89.44;101527.41;5023555;28;20042;-74
2021/11/16 06:52:18;;;;;;;85.20;27.00;;;;;;;5.42;89.33;101528.38;5024678;28;20022;-74
2021/11/16 06:54:44;;;;;;;50.20;16.08;;;;;;;5.48;89.17;101530.28;5024750;28;20544;-74
2021/11/16 06:57:10;;;;;;;57.65;18.70;;;;;;;5.40;89.42;101519.75;5024991;28;20030;-74
2021/11/16 06:59:36;;;;;;;68.78;22.83;;;;;;;5.36;89.91;101528.22;5024623;28;20810;-74
2021/11/16 07:02:01;;;;;;;74.40;21.33;;;;;;;5.35;89.57;101526.47;5023537;28;20030;-75
2021/11/16 07:04:41;;;;;;;68.30;21.75;;;;;;;5.41;89.59;101524.09;5024848;28;20022;-75
2021/11/16 07:07:07;;;;;;;73.30;22.75;;;;;;;5.38;89.70;101526.56;5025036;28;20026;-75
2021/11/16 07:09:40;;;;;;;81.25;26.77;;;;;;;5.43;89.51;101527.56;5024822;28;20025;-75
2021/11/16 07:12:12;;;;;;;62.95;20.35;;;;;;;5.45;89.51;101538.78;5023547;28;20018;-76
2021/11/16 07:14:37;;;;;;;99.05;27.00;;;;;;;5.36;89.71;101525.63;5024598;28;20025;-76
2021/11/16 07:17:12;;;;;;;91.90;28.60;;;;;;;5.37;90.02;101535.09;5024905;28;20513;-76
2021/11/16 07:19:48;;;;;;;39.30;13.20;;;;;;;5.42;89.77;101541.28;5023743;28;20026;-75
2021/11/16 07:22:20;;;;;;;49.22;15.65;;;;;;;5.41;89.68;101536.97;5024926;28;20025;-74
2021/11/16 07:24:49;;;;;;;60.90;18.75;;;;;;;5.42;89.57;101530.09;5024776;28;20121;-74
2021/11/16 07:27:31;;;;;;;27.70;10.52;;;;;;;5.37;89.84;101529.94;5024086;28;20057;-74
2021/11/16 07:29:57;;;;;;;77.80;24.60;;;;;;;5.30;89.97;101535.75;5023387;28;20502;-74
2021/11/16 07:32:33;;;;;;;69.88;20.70;;;;;;;5.32;90.04;101531.50;5024349;28;20045;-75
2021/11/16 07:35:04;;;;;;;86.95;23.85;;;;;;;5.33;90.01;101528.09;5024516;28;20048;-73
2021/11/16 07:37:32;;;;;;;62.97;19.90;;;;;;;5.39;89.78;101527.41;5024505;28;20081;-72
2021/11/16 07:40:05;;;;;;;91.55;27.58;;;;;;;5.28;90.24;101521.94;5024544;28;20021;-73
2021/11/16 07:42:37;;;;;;;81.30;26.40;;;;;;;5.27;90.71;101515.03;5024140;28;20037;-72
2021/11/16 07:45:09;;;;;;;74.13;23.17;;;;;;;5.40;90.49;101518.88;5024371;28;20022;-73
2021/11/16 07:47:57;;;;;;;73.05;22.30;;;;;;;5.38;90.25;101515.38;5024259;28;20021;-73
2021/11/16 07:50:50;;;;;;;66.35;18.83;;;;;;;5.41;90.21;101506.06;5012089;28;20429;-72
2021/11/16 07:53:27;;;;;;;69.82;22.83;;;;;;;5.34;90.42;101509.25;5022194;28;20095;-72
2021/11/16 07:55:52;;;;;;;74.18;24.60;;;;;;;5.33;90.47;101497.22;5024145;28;20014;-73
2021/11/16 07:58:18;;;;;;;51.20;16.98;;;;;;;5.36;90.16;101492.16;5022454;28;20034;-72
2021/11/16 08:00:47;;;;;;;79.50;23.67;;;;;;;5.41;90.08;101500.91;5023880;28;20026;-72
2021/11/16 08:03:17;;;;;;;69.15;21.60;;;;;;;5.31;90.58;101492.00;5023900;28;20117;-74
2021/11/16 08:11:05;;;;;;;103.75;29.10;;;;;;;5.39;90.91;101499.09;5024236;28;20026;-73
2021/11/16 08:13:34;;;;;;;100.70;27.65;;;;;;;5.39;90.92;101489.66;5021984;28;20030;-73
2021/11/16 08:16:10;;;;;;;97.82;28.52;;;;;;;5.45;90.88;101495.00;5024199;28;20350;-73
2021/11/16 08:18:44;;;;;;;86.53;24.45;;;;;;;5.51;90.60;101499.44;5023723;28;20514;-73
2021/11/16 08:21:12;;;;;;;92.07;28.70;;;;;;;5.57;90.20;101498.78;5022446;28;20108;-73
2021/11/16 08:23:49;;;;;;;90.80;27.65;;;;;;;5.54;90.40;101493.53;5023488;28;20114;-73
2021/11/16 08:26:16;;;;;;;91.03;30.55;;;;;;;5.52;90.59;101493.50;5022343;28;20042;-73
2021/11/16 08:28:47;;;;;;;90.15;23.90;;;;;;;5.58;90.67;101493.69;5023120;28;20454;-73
2021/11/16 08:31:13;;;;;;;128.68;34.20;;;;;;;5.64;90.44;101492.97;5023603;28;20145;-73
2021/11/16 08:33:39;;;;;;;122.88;32.42;;;;;;;5.66;90.60;101486.16;5023338;28;20060;-72
2021/11/16 08:36:05;;;;;;;91.18;29.48;;;;;;;5.73;90.17;101481.19;5023633;28;20030;-72
2021/11/16 08:38:38;;;;;;;106.40;30.40;;;;;;;5.75;90.10;101479.53;5023520;28;20029;-72
2021/11/16 08:41:04;;;;;;;111.35;33.50;;;;;;;5.75;90.17;101475.25;5023648;28;20060;-72
2021/11/16 08:43:38;;;;;;;104.25;30.80;;;;;;;5.80;89.74;101476.25;5023059;28;20212;-72
2021/11/16 08:46:06;;;;;;;111.05;31.38;;;;;;;5.77;90.09;101467.56;5025928;28;20302;-72
2021/11/16 08:48:35;;;;;;;90.55;27.90;;;;;;;5.86;89.78;101477.28;5027188;28;20033;-72
2021/11/16 08:51:08;;;;;;;90.43;28.90;;;;;;;5.84;89.70;101477.22;5025840;28;20097;-72
2021/11/16 08:53:37;;;;;;;98.47;30.27;;;;;;;5.77;89.31;101464.97;5026917;28;20025;-72
2021/11/16 08:56:11;;;;;;;107.03;33.08;;;;;;;5.83;89.59;101478.06;5027423;28;20036;-72
2021/11/16 08:58:37;;;;;;;91.43;27.73;;;;;;;5.80;89.61;101467.63;5025487;28;20434;-71
2021/11/16 09:01:07;;;;;;;123.45;33.78;;;;;;;5.82;89.77;101471.16;5025881;28;20033;-72
2021/11/16 09:03:41;;;;;;;100.05;30.75;;;;;;;5.85;89.74;101473.81;5027253;28;20017;-71
2021/11/16 09:06:21;;;;;;;82.63;22.13;;;;;;;5.89;89.45;101475.66;5027412;28;20026;-71
2021/11/16 09:09:18;;;;;;;81.57;29.10;;;;;;;5.86;89.47;101477.28;5025479;28;20076;-71
2021/11/16 09:12:04;;;;;;;114.15;32.47;;;;;;;5.80;89.71;101475.38;5026790;28;20054;-71
2021/11/16 09:14:32;;;;;;;90.63;29.52;;;;;;;5.87;89.69;101473.84;5026737;28;20033;-71
2021/11/16 09:17:11;;;;;;;107.13;32.75;;;;;;;5.87;89.50;101466.13;5026862;28;20324;-71
2021/11/16 09:19:37;;;;;;;86.30;27.58;;;;;;;5.95;89.25;101474.94;5026701;28;20022;-72
2021/11/16 09:22:03;;;;;;;87.28;29.48;;;;;;;5.91;89.40;101471.41;5026615;28;20105;-71
2021/11/16 09:24:39;;;;;;;79.60;27.35;;;;;;;5.91;89.43;101471.41;5026713;28;20030;-72
2021/11/16 09:29:32;;;;;;;93.53;30.02;;;;;;;5.91;89.52;101471.41;5026321;28;20591;-72
2021/11/16 09:32:01;;;;;;;83.38;27.77;;;;;;;5.88;89.58;101458.44;5026817;28;20034;-72
2021/11/16 09:34:30;;;;;;;94.22;30.45;;;;;;;5.94;89.57;101462.91;5025491;28;20056;-72
2021/11/16 09:36:57;;;;;;;79.47;25.70;;;;;;;5.98;89.56;101461.25;5026895;28;20113;-72
2021/11/16 09:39:29;;;;;;;56.97;20.13;;;;;;;6.01;89.16;101458.75;5026403;28;20133;-72
2021/11/16 09:41:57;;;;;;;76.18;22.73;;;;;;;5.95;89.14;101452.63;5026580;28;20021;-72
2021/11/16 09:44:27;;;;;;;78.47;27.25;;;;;;;5.98;89.06;101453.53;5024945;28;20026;-73
2021/11/16 09:47:11;;;;;;;68.85;22.77;;;;;;;6.02;88.99;101455.38;5026533;28;20026;-72
2021/11/16 09:49:39;;;;;;;76.25;25.45;;;;;;;6.02;88.60;101450.22;5026457;28;20435;-72
2021/11/16 09:52:09;;;;;;;79.38;25.38;;;;;;;5.94;88.67;101440.56;5026406;28;20025;-72
2021/11/16 09:54:56;;;;;;;62.35;22.38;;;;;;;5.91;89.19;101437.91;5026585;28;20034;-72
2021/11/16 09:57:26;;;;;;;66.03;21.00;;;;;;;5.89;88.99;101444.72;5026026;28;20025;-72
2021/11/16 09:59:59;;;;;;;68.95;26.20;;;;;;;5.83;89.35;101440.25;5025989;28;20512;-74
2021/11/16 10:02:28;;;;;;;65.68;22.90;;;;;;;5.89;89.32;101439.56;5026376;28;20030;-72
2021/11/16 10:05:01;;;;;;;84.40;27.23;;;;;;;5.89;89.04;101437.00;5026165;28;20049;-73
2021/11/16 10:07:26;;;;;;;62.92;20.58;;;;;;;5.87;89.46;101435.19;5026004;28;20033;-72
2021/11/16 10:09:51;;;;;;;67.60;21.08;;;;;;;5.86;89.03;101434.34;5025852;28;20022;-73
2021/11/16 10:12:23;;;;;;;65.57;23.52;;;;;;;5.87;88.93;101432.63;5025844;28;20022;-73
2021/11/16 10:14:48;;;;;;;68.97;23.80;;;;;;;5.88;89.18;101436.97;5025713;28;20025;-73
2021/11/16 10:17:13;;;;;;;78.78;26.77;;;;;;;5.83;89.31;101435.09;5024560;28;20032;-73
2021/11/16 10:19:39;;;;;;;82.35;26.83;;;;;;;5.77;89.67;101411.75;5025709;28;20049;-73
2021/11/16 10:22:11;;;;;;;90.57;29.42;;;;;;;5.84;89.60;101423.09;5025785;28;20034;-73
2021/11/16 10:24:37;;;;;;;88.60;27.85;;;;;;;5.82;89.82;101417.91;5025835;28;20030;-73
2021/11/16 10:27:22;;;;;;;87.85;28.10;;;;;;;5.90;89.71;101414.66;5025600;28;20075;-73
2021/11/16 10:30:06;;;;;;;89.38;26.67;;;;;;;5.94;89.52;101419.94;5025355;28;20108;-73
2021/11/16 10:32:32;;;;;;;73.40;23.83;;;;;;;5.94;89.56;101414.78;5025767;28;20034;-73
2021/11/16 10:35:12;;;;;;;55.35;18.02;;;;;;;5.92;89.12;101403.56;5025427;28;20107;-73
2021/11/16 10:37:55;;;;;;;76.40;26.60;;;;;;;5.94;88.83;101399.31;5025738;28;20022;-73
2021/11/16 10:40:24;;;;;;;78.50;25.52;;;;;;;5.85;89.14;101398.22;5024078;28;20161;-74
2021/11/16 10:42:53;;;;;;;78.55;26.33;;;;;;;5.84;89.41;101399.91;5023902;28;20021;-73
2021/11/16 10:45:22;;;;;;;75.22;26.00;;;;;;;5.87;89.56;101394.84;5025179;28;20033;-73
2021/11/16 10:47:47;;;;;;;84.30;29.15;;;;;;;5.86;89.60;101394.81;5025292;28;20461;-72
2021/11/16 10:50:16;;;;;;;81.95;27.70;;;;;;;5.89;89.69;101400.03;5025107;28;20029;-73
2021/11/16 10:52:42;;;;;;;69.40;24.60;;;;;;;5.90;89.46;101400.06;5025239;28;20104;-73
2021/11/16 10:55:09;;;;;;;84.63;26.83;;;;;;;5.89;89.64;101384.56;5025124;28;20024;-73
2021/11/16 10:58:03;;;;;;;80.25;25.95;;;;;;;5.98;89.44;101384.81;5025111;28;20032;-73
2021/11/16 11:00:46;;;;;;;73.07;25.17;;;;;;;5.99;89.29;101385.69;5025066;28;20044;-73
2021/11/16 11:03:15;;;;;;;77.93;27.33;;;;;;;5.99;89.64;101381.38;5025033;28;20421;-71
2021/11/16 11:05:42;;;;;;;75.03;26.58;;;;;;;6.01;89.57;101381.44;5025130;28;20030;-72
2021/11/16 11:08:07;;;;;;;81.50;26.67;;;;;;;6.03;89.58;101383.25;5023019;28;20068;-72
2021/11/16 11:10:46;;;;;;;75.78;26.58;;;;;;;6.09;89.29;101386.84;5024856;28;20034;-73
2021/11/16 11:13:28;;;;;;;69.85;24.25;;;;;;;6.06;89.55;101375.63;5024513;28;20026;-73
2021/11/16 11:15:58;;;;;;;78.20;25.92;;;;;;;6.09;89.08;101379.97;5024825;28;20026;-73
2021/11/16 11:18:38;;;;;;;62.83;25.35;;;;;;;6.14;88.88;101385.25;5024693;28;20080;-73
2021/11/16 11:21:07;;;;;;;76.80;26.85;;;;;;;6.12;88.90;101377.47;5024647;28;20035;-73
2021/11/16 11:23:44;;;;;;;63.65;23.42;;;;;;;6.09;89.00;101377.38;5024704;28;20082;-72
2021/11/16 11:26:33;;;;;;;66.07;23.90;;;;;;;6.11;89.12;101374.84;5024232;28;20018;-73
2021/11/16 11:29:19;;;;;;;78.07;28.33;;;;;;;6.07;89.15;101358.44;5023339;28;20334;-72
2021/11/16 11:31:49;;;;;;;72.10;25.25;;;;;;;6.16;88.98;101363.84;5024916;28;20025;-73
2021/11/16 11:34:16;;;;;;;80.10;26.88;;;;;;;6.10;89.04;101355.06;5024603;28;20030;-73
2021/11/16 11:36:41;;;;;;;70.82;25.80;;;;;;;6.13;88.73;101357.72;5024450;28;20022;-73
2021/11/16 11:39:19;;;;;;;66.18;24.45;;;;;;;6.14;88.91;101357.75;5024623;28;20026;-73
2021/11/16 11:41:56;;;;;;;71.68;23.83;;;;;;;6.15;89.10;101349.19;5024159;28;20025;-74